Αναφορές Αεροδρομίων

 

KSJC - San Jose, California, USA
Distance from station: ΒΑ 14km
Ενημερώθηκε: 25/04/2024 00:53
Σχεδόν νεφελώδης
Σχεδόν νεφελώδης
 Ανεμος από ΒΔ
Ανεμος: ΒΔ 9 km/h, Ριπή: 26 km/h
Θερμοκρασία: 19°C
Σημείο Δρόσου: 7°C
Υγρασία: 46%
Βαρόμετρο: 1017.3 hPa
Clouds: Σχεδόν νεφελώδης
Visibility: 16 km
Cloud details: Σχεδόν νεφελώδης 1524 m
2024/04/24 21:53 KSJC 242153Z 31005G14KT 10SM BKN050 19/07 A3004 RMK AO2 SLP172 T01940067
KNUQ - Moffett Nas/Mtn, California, USA
Distance from station: Β 14km
Ενημερώθηκε: 25/04/2024 00:35
Συννεφιά
Συννεφιά
 Ανεμος από ΒΒΔ
Ανεμος: ΒΒΔ 7 km/h
Θερμοκρασία: 18°C
Σημείο Δρόσου: 7°C
Υγρασία: 49%
Βαρόμετρο: 1017.6 hPa
Clouds: Συννεφιά
Visibility: 14 km
Cloud details: Συννεφιά 1463 m
2024/04/24 21:35 KNUQ 242135Z AUTO 34004KT 9SM OVC048 18/07 A3005 RMK AO2
 
KPAO - Palo Alto, California, USA
Distance from station: ΒΒΔ 23km
Ενημερώθηκε: 25/04/2024 00:47
Σχεδόν νεφελώδης
Σχεδόν νεφελώδης
 Ανεμος από varies
Ανεμος: varies 7 km/h
Θερμοκρασία: 17°C
Σημείο Δρόσου: 7°C
Υγρασία: 52%
Βαρόμετρο: 1017.9 hPa
Clouds: Σχεδόν νεφελώδης
Visibility: 16 km
Cloud details: Σχεδόν νεφελώδης 1524 m
2024/04/24 21:47 KPAO 242147Z VRB04KT 10SM BKN050 17/07 A3006
KRHV - San Jose/Reid, California, USA
Distance from station: ΑΒΑ 19km
Ενημερώθηκε: 24/04/2024 23:47
Σχεδόν νεφελώδης
Σχεδόν νεφελώδης
 Ανεμος από Δ
Ανεμος: Δ 11 km/h
Θερμοκρασία: 18°C
Σημείο Δρόσου: 7°C
Υγρασία: 49%
Βαρόμετρο: 1017.9 hPa
Clouds: Σχεδόν νεφελώδης
Visibility: 16 km
Cloud details: Σχεδόν νεφελώδης 1372 m
2024/04/24 20:47 KRHV 242047Z 26006KT 10SM BKN045 18/07 A3006
 
KOAK - Oakland, California, USA
Distance from station: ΒΒΔ 50km
Ενημερώθηκε: 25/04/2024 00:53
Σχεδόν νεφελώδης
Σχεδόν νεφελώδης
 Ανεμος από ΔΒΔ
Ανεμος: ΔΒΔ 19 km/h
Θερμοκρασία: 17°C
Σημείο Δρόσου: 10°C
Υγρασία: 64%
Βαρόμετρο: 1017.9 hPa
Clouds: Σχεδόν νεφελώδης
Visibility: 16 km
Cloud details: Few Clouds 366 m
Σχεδόν νεφελώδης 1524 m
2024/04/24 21:53 KOAK 242153Z 29010KT 10SM FEW012 BKN050 17/10 A3006 RMK AO2 SLP180 T01670100 $
KSQL - San Carlos Airpo, California, USA
Distance from station: ΒΔ 34km
Ενημερώθηκε: 24/04/2024 22:47
NOT Current
Συννεφιά
Συννεφιά
 Ανεμος από calm
Ανεμος: Απνοια
Θερμοκρασία: 17°C
Σημείο Δρόσου: 7°C
Υγρασία: 52%
Βαρόμετρο: 1018.6 hPa
Clouds: Συννεφιά
Visibility: 16 km
Cloud details: Συννεφιά 1280 m
2024/04/24 19:47 KSQL 241947Z 00000KT 10SM OVC042 17/07 A3008
 
KSFO - San Francisco, California, USA
Distance from station: ΒΔ 49km
Ενημερώθηκε: 24/04/2024 23:56
Συννεφιά
Συννεφιά
 Ανεμος από ΒΒΔ
Ανεμος: ΒΒΔ 15 km/h
Θερμοκρασία: 16°C
Σημείο Δρόσου: 10°C
Υγρασία: 68%
Βαρόμετρο: 1017.9 hPa
Clouds: Συννεφιά
Visibility: 16 km
Cloud details: Συννεφιά 1006 m
2024/04/24 20:56 KSFO 242056Z 33008KT 10SM OVC033 16/10 A3006 RMK AO2 SLP179 T01560100 58006
KE16 - San Martin, California, USA
Distance from station: ΑΝΑ 43km
Ενημερώθηκε: 25/04/2024 00:35
Σχεδόν νεφελώδης
Σχεδόν νεφελώδης
 Ανεμος από Ν
Ανεμος: Ν 13 km/h, Ριπή: 31 km/h
Θερμοκρασία: 18°C
Σημείο Δρόσου: 6°C
Υγρασία: 46%
Βαρόμετρο: 1018.3 hPa
Clouds: Σχεδόν νεφελώδης
Visibility: 16 km
Cloud details: Σχεδόν νεφελώδης 1372 m
2024/04/24 21:35 KE16 242135Z AUTO 18007G17KT 10SM BKN045 18/06 A3007 RMK AO2 PWINO PNO
 
KWVI - Watsonville, California, USA
Distance from station: ΝΝΑ 44km
Ενημερώθηκε: 25/04/2024 00:53
Σχεδόν νεφελώδης
Σχεδόν νεφελώδης
 Ανεμος από ΝΔ
Ανεμος: ΝΔ 19 km/h
Θερμοκρασία: 17°C
Σημείο Δρόσου: 9°C
Υγρασία: 59%
Βαρόμετρο: 1018.3 hPa
Clouds: Σχεδόν νεφελώδης
Visibility: 16 km
Cloud details: Σχεδόν νεφελώδης 1372 m
2024/04/24 21:53 KWVI 242153Z AUTO 23010KT 10SM BKN045 17/09 A3007 RMK AO2 SLP183 T01670089
KHAF - Half Moon Bay, California, USA
Distance from station: ΔΒΔ 50km
Ενημερώθηκε: 25/04/2024 00:55
Mist, Συννεφιά
Mist, Συννεφιά
 Ανεμος από ΝΔ
Ανεμος: ΝΔ 9 km/h
Θερμοκρασία: 14°C
Σημείο Δρόσου: 12°C
Υγρασία: 88%
Βαρόμετρο: 1018.6 hPa
Περίληψη: Mist
Clouds: Συννεφιά
Visibility: 10 km
Cloud details: Σχεδόν νεφελώδης 1036 m
Συννεφιά 1494 m
2024/04/24 21:55 KHAF 242155Z AUTO 23005KT 6SM BR BKN034 OVC049 14/12 A3008 RMK AO2
 
KHWD - Hayward, California, USA
Distance from station: Β 44km
Ενημερώθηκε: 25/04/2024 00:54
Σχεδόν νεφελώδης
Σχεδόν νεφελώδης
 Ανεμος από Δ
Ανεμος: Δ 15 km/h
Θερμοκρασία: 18°C
Σημείο Δρόσου: 9°C
Υγρασία: 56%
Βαρόμετρο: 1017.6 hPa
Clouds: Σχεδόν νεφελώδης
Visibility: 16 km
Cloud details: Σχεδόν νεφελώδης 1463 m
2024/04/24 21:54 KHWD 242154Z 26008KT 10SM BKN048 18/09 A3005 RMK AO2 SLP184 T01830089
KLVK - Livermore, California, USA
Distance from station: ΒΒΑ 51km
Ενημερώθηκε: 25/04/2024 00:53
Συννεφιά
Συννεφιά
 Ανεμος από Ν
Ανεμος: Ν 7 km/h
Θερμοκρασία: 18°C
Σημείο Δρόσου: 6°C
Υγρασία: 46%
Βαρόμετρο: 1016.9 hPa
Clouds: Συννεφιά
Visibility: 16 km
Cloud details: Συννεφιά 1433 m
2024/04/24 21:53 KLVK 242153Z 19004KT 10SM OVC047 18/06 A3003 RMK AO2 SLP168 T01780061